Time;durP1;ratioP1;P1;durP2;ratioP2;P2;SDS_P1;SDS_P2;PMS_P1;PMS_P2;Temp;Humidity;BMP_temperature;BMP_pressure;BME280_temperature;BME280_humidity;BME280_pressure;Samples;Min_cycle;Max_cycle;Signal;HPM_P1;HPM_P2
2023/07/26 00:00:26;;;;;;;19.10;11.80;;;;;;;30.65;28.84;91880.69;5070538;28;20219;-77
2023/07/26 00:02:51;;;;;;;21.67;11.52;;;;;;;30.56;29.33;91853.56;5030652;28;20243;-79
2023/07/26 00:05:17;;;;;;;20.63;10.95;;;;;;;30.63;28.17;91866.91;5029640;28;20257;-82
2023/07/26 00:07:42;;;;;;;18.95;11.15;;;;;;;30.54;28.88;91856.69;5030267;28;20187;-78
2023/07/26 00:10:08;;;;;;;18.65;10.55;;;;;;;30.63;29.22;91858.81;5029769;28;20232;-80
2023/07/26 00:12:33;;;;;;;15.20;9.80;;;;;;;30.63;29.97;91861.50;5030240;28;20210;-80
2023/07/26 00:14:58;;;;;;;18.08;10.65;;;;;;;30.51;30.27;91875.63;5034252;28;20248;-80
2023/07/26 00:17:24;;;;;;;15.52;10.98;;;;;;;30.48;28.84;91869.16;5049757;28;20182;-77
2023/07/26 00:19:49;;;;;;;18.92;11.20;;;;;;;30.52;28.82;91869.84;5049816;28;20242;-80
2023/07/26 00:22:14;;;;;;;21.23;11.60;;;;;;;30.56;28.52;91856.25;5049532;28;20190;-80
2023/07/26 00:24:40;;;;;;;13.70;10.57;;;;;;;30.49;29.01;91861.84;5050075;28;20186;-81
2023/07/26 00:27:05;;;;;;;14.77;11.20;;;;;;;30.63;28.55;91853.41;5049715;28;20261;-78
2023/07/26 00:29:31;;;;;;;19.42;12.15;;;;;;;30.51;28.53;91864.84;5049289;28;20182;-77
2023/07/26 00:31:56;;;;;;;22.95;11.50;;;;;;;30.54;28.97;91848.59;5049603;28;20217;-77
2023/07/26 00:34:22;;;;;;;17.52;11.13;;;;;;;30.50;28.67;91845.25;5049667;28;20247;-78
2023/07/26 00:36:47;;;;;;;19.38;11.43;;;;;;;30.51;28.64;91838.66;5049025;28;20242;-78
2023/07/26 00:39:13;;;;;;;23.40;10.88;;;;;;;30.55;29.25;91854.75;5050062;28;20193;-78
2023/07/26 00:41:38;;;;;;;23.05;11.38;;;;;;;30.41;28.91;91847.00;5048154;28;20248;-79
2023/07/26 00:44:04;;;;;;;21.50;11.63;;;;;;;30.36;29.10;91847.50;5060937;28;20188;-78
2023/07/26 00:46:29;;;;;;;23.70;11.50;;;;;;;30.38;29.16;91855.94;5051096;28;20252;-79
2023/07/26 00:48:57;;;;;;;19.85;10.93;;;;;;;30.17;29.68;91837.50;5049931;28;20185;-78
2023/07/26 00:51:23;;;;;;;19.88;10.80;;;;;;;30.21;29.85;91843.59;5049116;28;20245;-78
2023/07/26 00:53:49;;;;;;;18.02;10.60;;;;;;;30.31;29.85;91851.44;5049755;28;20186;-81
2023/07/26 00:56:15;;;;;;;24.60;11.52;;;;;;;30.13;29.89;91850.28;5051337;28;20236;-78
2023/07/26 00:58:40;;;;;;;15.30;10.10;;;;;;;30.09;30.92;91844.22;5053934;28;20193;-79
2023/07/26 01:01:06;;;;;;;15.75;12.13;;;;;;;30.15;30.70;91843.31;5061344;28;20236;-79
2023/07/26 01:03:31;;;;;;;16.13;11.60;;;;;;;30.10;31.25;91845.75;5061340;28;20204;-79
2023/07/26 01:06:04;;;;;;;22.75;11.95;;;;;;;29.97;31.69;91837.56;5040776;28;20237;-78
2023/07/26 01:08:51;;;;;;;19.25;11.38;;;;;;;30.06;31.81;91835.03;5033723;28;20217;-78
2023/07/26 01:11:21;;;;;;;14.75;12.18;;;;;;;30.01;32.32;91832.09;5048221;28;20241;-80
2023/07/26 01:14:10;;;;;;;14.27;11.98;;;;;;;30.06;31.38;91828.88;5053409;28;20189;-80
2023/07/26 01:16:36;;;;;;;22.20;12.55;;;;;;;30.09;31.29;91822.69;5050060;28;20281;-78
2023/07/26 01:19:02;;;;;;;17.58;11.77;;;;;;;29.95;31.11;91817.63;5053059;28;20312;-80
2023/07/26 01:21:32;;;;;;;18.77;11.80;;;;;;;29.88;30.75;91823.91;5052654;28;20238;-79
2023/07/26 01:23:58;;;;;;;20.70;11.85;;;;;;;29.94;31.09;91832.22;5053496;28;20204;-79
2023/07/26 01:26:23;;;;;;;15.77;11.90;;;;;;;30.12;29.69;91840.72;5052824;28;20210;-78
2023/07/26 01:28:48;;;;;;;22.30;10.85;;;;;;;30.07;30.52;91825.81;5053300;28;20252;-77
2023/07/26 01:31:16;;;;;;;18.23;11.18;;;;;;;30.01;30.06;91824.75;5052551;28;20264;-76
2023/07/26 01:33:42;;;;;;;20.10;12.05;;;;;;;30.03;30.61;91827.03;5051960;28;20185;-77
2023/07/26 01:36:09;;;;;;;17.52;11.82;;;;;;;30.00;31.24;91812.47;5052570;28;20213;-78
2023/07/26 01:38:34;;;;;;;18.98;11.82;;;;;;;29.78;31.98;91819.50;5085428;28;20617;-78
2023/07/26 01:41:01;;;;;;;15.95;12.57;;;;;;;29.77;31.75;91799.16;5052428;28;20224;-78
2023/07/26 01:43:27;;;;;;;23.92;12.70;;;;;;;29.81;31.21;91804.47;5052556;28;20261;-77
2023/07/26 01:45:52;;;;;;;24.27;12.40;;;;;;;29.79;31.46;91804.88;5052414;28;20251;-78
2023/07/26 01:48:18;;;;;;;20.40;11.80;;;;;;;29.91;30.95;91803.47;5052725;28;20193;-78
2023/07/26 01:50:43;;;;;;;23.33;12.60;;;;;;;29.92;30.57;91796.91;5052575;28;20257;-78
2023/07/26 01:53:09;;;;;;;18.95;11.82;;;;;;;29.88;30.52;91777.38;5052581;28;20209;-77
2023/07/26 01:55:34;;;;;;;25.10;11.95;;;;;;;29.73;30.04;91778.88;5085311;28;20241;-77
2023/07/26 01:57:59;;;;;;;23.20;10.55;;;;;;;29.77;29.62;91795.69;5052682;28;20245;-77
2023/07/26 02:00:25;;;;;;;17.70;11.30;;;;;;;29.95;29.01;91796.81;5055832;28;20217;-79
2023/07/26 02:02:50;;;;;;;19.55;11.40;;;;;;;29.83;29.20;91783.25;5053119;28;20306;-77
2023/07/26 02:05:16;;;;;;;21.65;11.00;;;;;;;29.86;29.30;91795.88;5050782;28;20291;-78
2023/07/26 02:07:42;;;;;;;21.40;11.82;;;;;;;29.81;28.51;91791.00;5052013;28;20212;-76
2023/07/26 02:10:08;;;;;;;21.55;12.02;;;;;;;29.91;28.22;91787.31;5063675;28;20219;-78
2023/07/26 02:12:33;;;;;;;20.02;10.73;;;;;;;29.96;28.17;91784.88;5053183;28;20216;-76
2023/07/26 02:14:59;;;;;;;19.90;10.50;;;;;;;29.92;28.08;91786.16;5052163;28;20222;-78
2023/07/26 02:17:24;;;;;;;20.73;11.75;;;;;;;29.91;27.02;91779.22;5052136;28;20186;-78
2023/07/26 02:19:50;;;;;;;17.13;11.45;;;;;;;29.90;27.50;91772.34;5048672;28;20320;-78
2023/07/26 02:22:15;;;;;;;21.55;10.82;;;;;;;29.99;26.74;91783.28;5032403;28;20221;-78
2023/07/26 02:24:41;;;;;;;22.15;10.48;;;;;;;29.96;27.21;91786.81;5035067;28;20178;-78
2023/07/26 02:27:06;;;;;;;18.17;11.27;;;;;;;30.07;27.17;91792.72;5032320;28;20189;-79
2023/07/26 02:29:34;;;;;;;17.48;10.80;;;;;;;30.03;26.75;91802.81;5032343;28;20179;-78
2023/07/26 02:31:59;;;;;;;18.70;10.25;;;;;;;29.85;27.75;91797.81;5035011;28;20253;-77
2023/07/26 02:34:25;;;;;;;21.88;11.48;;;;;;;29.73;28.16;91799.22;5032356;28;20186;-78
2023/07/26 02:36:50;;;;;;;14.35;10.60;;;;;;;29.79;27.77;91804.09;5050953;28;20297;-76
2023/07/26 02:39:15;;;;;;;20.00;12.48;;;;;;;29.93;28.20;91809.19;5052096;28;20253;-77
2023/07/26 02:41:41;;;;;;;17.80;10.88;;;;;;;29.86;28.08;91793.19;5033031;28;20686;-78
2023/07/26 02:44:06;;;;;;;16.10;10.73;;;;;;;29.65;28.87;91792.47;5031885;28;20270;-77
2023/07/26 02:46:31;;;;;;;23.40;10.57;;;;;;;29.47;28.81;91765.13;5031302;28;20237;-78
2023/07/26 02:48:57;;;;;;;24.85;10.90;;;;;;;29.66;27.82;91788.59;5034891;28;20186;-79
2023/07/26 02:51:22;;;;;;;21.05;11.27;;;;;;;29.59;28.04;91794.09;5037338;28;21717;-78
2023/07/26 02:53:47;;;;;;;24.02;11.02;;;;;;;29.51;29.24;91790.03;5040276;28;20191;-77
2023/07/26 02:56:13;;;;;;;15.18;11.00;;;;;;;29.68;27.76;91805.06;5031364;28;20221;-78
2023/07/26 02:58:38;;;;;;;20.48;10.23;;;;;;;29.51;27.95;91800.03;5031775;28;20202;-77
2023/07/26 03:01:04;;;;;;;17.35;11.13;;;;;;;29.51;28.42;91810.81;5038732;28;20229;-78
2023/07/26 03:03:29;;;;;;;22.23;11.65;;;;;;;29.44;29.13;91830.53;5035925;28;20191;-76
2023/07/26 03:05:57;;;;;;;14.52;10.65;;;;;;;29.25;35.33;91817.81;5030643;28;20306;-77
2023/07/26 03:08:23;;;;;;;20.10;10.82;;;;;;;28.91;36.71;91817.28;5031477;28;20241;-77
2023/07/26 03:10:51;;;;;;;17.13;10.35;;;;;;;28.14;38.90;91829.25;5030819;28;20217;-78
2023/07/26 03:13:17;;;;;;;13.48;10.60;;;;;;;27.89;39.64;91823.47;5031465;28;20270;-80
2023/07/26 03:15:42;;;;;;;17.98;10.63;;;;;;;27.77;40.73;91810.53;5030882;28;20225;-77
2023/07/26 03:18:07;;;;;;;17.48;11.63;;;;;;;27.85;41.02;91812.75;5030266;28;20190;-76
2023/07/26 03:20:33;;;;;;;15.57;10.95;;;;;;;27.72;42.04;91817.13;5030731;28;20230;-77
2023/07/26 03:22:58;;;;;;;14.55;10.55;;;;;;;27.63;42.87;91826.81;5031339;28;20190;-77
2023/07/26 03:25:23;;;;;;;18.67;12.40;;;;;;;27.52;42.88;91804.75;5030798;28;20800;-78
2023/07/26 03:27:49;;;;;;;20.20;11.32;;;;;;;27.43;44.21;91850.81;5031113;28;20200;-77
2023/07/26 03:30:14;;;;;;;17.50;11.05;;;;;;;27.22;44.42;91834.19;5029627;28;20253;-77
2023/07/26 03:32:39;;;;;;;16.60;10.82;;;;;;;27.02;45.34;91831.31;5030998;28;20221;-78
2023/07/26 03:35:05;;;;;;;22.17;12.45;;;;;;;26.78;46.77;91821.63;5030395;28;20226;-77
2023/07/26 03:37:31;;;;;;;19.90;11.90;;;;;;;26.89;46.65;91840.25;5031001;28;20182;-77
2023/07/26 03:39:56;;;;;;;22.35;11.40;;;;;;;26.91;46.63;91837.97;5034389;28;20232;-77
2023/07/26 03:42:22;;;;;;;19.90;12.10;;;;;;;26.69;48.15;91845.44;5050651;28;20178;-76
2023/07/26 03:44:47;;;;;;;14.35;10.82;;;;;;;26.43;48.25;91825.34;5050110;28;20237;-77
2023/07/26 03:47:12;;;;;;;19.52;11.68;;;;;;;26.40;48.65;91817.31;5050502;28;20186;-77
2023/07/26 03:49:38;;;;;;;20.40;11.68;;;;;;;26.66;47.02;91820.19;5054646;28;20178;-77
2023/07/26 03:52:04;;;;;;;29.98;13.07;;;;;;;26.55;48.74;91835.56;5050490;28;20214;-75
2023/07/26 03:54:30;;;;;;;12.90;11.05;;;;;;;26.79;45.68;91822.38;5049890;28;20171;-75
2023/07/26 03:56:55;;;;;;;16.42;11.57;;;;;;;26.56;46.83;91813.00;5050906;28;20194;-77
2023/07/26 03:59:20;;;;;;;12.68;10.90;;;;;;;26.48;44.64;91835.63;5050410;28;20189;-75
2023/07/26 04:01:46;;;;;;;21.35;12.13;;;;;;;26.97;43.66;91853.22;5053704;28;20233;-75
2023/07/26 04:04:11;;;;;;;16.67;11.57;;;;;;;27.23;42.70;91828.44;5049777;28;20749;-74
2023/07/26 04:06:36;;;;;;;23.25;12.07;;;;;;;27.40;43.29;91835.53;5049827;28;20281;-75
2023/07/26 04:09:02;;;;;;;20.98;12.68;;;;;;;27.47;42.99;91838.13;5049847;28;20186;-75
2023/07/26 04:11:27;;;;;;;19.65;10.63;;;;;;;27.25;43.94;91834.16;5049345;28;20226;-75
2023/07/26 04:13:53;;;;;;;18.85;11.20;;;;;;;27.53;43.57;91839.22;5049648;28;20178;-75
2023/07/26 04:16:20;;;;;;;13.65;11.68;;;;;;;27.65;43.86;91844.06;5050616;28;20255;-75
2023/07/26 04:18:46;;;;;;;22.73;11.27;;;;;;;27.94;41.29;91836.41;5049639;28;20193;-75
2023/07/26 04:21:20;;;;;;;21.85;13.10;;;;;;;27.84;46.89;91848.81;5046509;28;20297;-78
2023/07/26 04:23:46;;;;;;;16.23;11.15;;;;;;;27.44;49.34;91840.88;5055836;28;20182;-73
2023/07/26 04:26:12;;;;;;;20.77;13.20;;;;;;;27.14;50.97;91859.53;5049781;28;20230;-75
2023/07/26 04:28:38;;;;;;;18.98;12.55;;;;;;;27.59;49.99;91834.94;5051732;28;20247;-75
2023/07/26 04:31:03;;;;;;;23.80;13.93;;;;;;;26.84;51.86;91854.84;5048405;28;20242;-74
2023/07/26 04:33:29;;;;;;;16.55;12.88;;;;;;;27.18;51.69;91844.16;5047130;28;20182;-74
2023/07/26 04:35:57;;;;;;;18.38;11.10;;;;;;;27.57;50.38;91839.16;5042890;28;20218;-73
2023/07/26 04:38:22;;;;;;;26.17;16.45;;;;;;;27.11;51.38;91836.22;5045574;28;20201;-72
2023/07/26 04:40:48;;;;;;;15.23;10.82;;;;;;;27.17;51.38;91856.84;5047875;28;20249;-73
2023/07/26 04:43:22;;;;;;;21.55;12.30;;;;;;;26.88;51.61;91830.72;5044979;28;20217;-75
2023/07/26 04:45:52;;;;;;;18.92;12.43;;;;;;;27.35;51.39;91827.19;5040943;28;20243;-71
2023/07/26 04:48:18;;;;;;;17.75;11.38;;;;;;;27.93;49.96;91816.13;5048633;28;20209;-72
2023/07/26 04:50:45;;;;;;;18.73;11.95;;;;;;;27.85;52.17;91838.81;5047964;28;20245;-68
2023/07/26 04:53:11;;;;;;;22.33;12.05;;;;;;;28.21;41.37;91810.34;5042815;28;20667;-71
2023/07/26 04:55:49;;;;;;;17.30;10.70;;;;;;;28.59;41.04;91816.31;5047929;28;20245;-73
2023/07/26 04:58:15;;;;;;;15.18;10.98;;;;;;;28.62;40.62;91816.25;5046201;28;20194;-69
2023/07/26 05:00:41;;;;;;;20.55;11.77;;;;;;;28.90;41.89;91812.31;5048102;28;20232;-73
2023/07/26 05:03:07;;;;;;;18.85;11.63;;;;;;;29.24;42.09;91808.25;5045930;28;20200;-72
2023/07/26 05:05:34;;;;;;;21.63;11.32;;;;;;;29.48;41.68;91825.84;5045816;28;20251;-71
2023/07/26 05:07:59;;;;;;;19.83;11.40;;;;;;;29.81;42.20;91817.91;5048358;28;20195;-74
2023/07/26 05:10:25;;;;;;;16.83;11.35;;;;;;;29.93;43.43;91819.97;5041579;28;20947;-74
2023/07/26 05:12:51;;;;;;;19.60;11.10;;;;;;;30.08;43.75;91837.31;5048302;28;20215;-70
2023/07/26 05:15:17;;;;;;;23.38;11.90;;;;;;;29.94;43.34;91818.78;5041519;28;20301;-71
2023/07/26 05:17:43;;;;;;;20.45;11.30;;;;;;;29.81;42.69;91812.53;5048664;28;20212;-74
2023/07/26 05:20:09;;;;;;;20.45;11.55;;;;;;;29.82;44.46;91795.19;5047726;28;20241;-77
2023/07/26 05:22:34;;;;;;;22.63;11.85;;;;;;;29.23;46.19;91812.09;5040992;28;20198;-72
2023/07/26 05:25:00;;;;;;;20.77;11.35;;;;;;;29.25;46.93;91807.06;5060128;28;20232;-71
2023/07/26 05:27:25;;;;;;;19.48;11.23;;;;;;;30.01;43.84;91826.72;5048207;28;20189;-73
2023/07/26 05:29:53;;;;;;;22.75;12.23;;;;;;;29.97;45.91;91821.41;5047727;28;20236;-77
2023/07/26 05:32:18;;;;;;;21.38;12.18;;;;;;;29.68;47.68;91815.84;5045820;28;20209;-71
2023/07/26 05:34:44;;;;;;;22.55;12.40;;;;;;;28.75;51.42;91844.03;5047153;28;20209;-73
2023/07/26 05:37:09;;;;;;;17.33;13.10;;;;;;;28.84;51.98;91795.88;5048317;28;20171;-74
2023/07/26 05:39:34;;;;;;;19.00;12.18;;;;;;;28.90;51.10;91836.50;5047674;28;20248;-74
2023/07/26 05:42:00;;;;;;;23.02;12.52;;;;;;;29.26;50.57;91838.16;5050456;28;20178;-74
2023/07/26 05:44:25;;;;;;;19.38;12.30;;;;;;;28.86;51.46;91831.19;5051674;28;20264;-74
2023/07/26 05:46:50;;;;;;;23.25;13.15;;;;;;;29.20;51.28;91834.44;5052306;28;20209;-80
2023/07/26 05:49:16;;;;;;;18.90;12.48;;;;;;;29.12;50.99;91827.66;5051713;28;20186;-79
2023/07/26 05:51:41;;;;;;;22.20;12.45;;;;;;;29.21;53.01;91837.91;5032970;28;20257;-78
2023/07/26 05:54:06;;;;;;;22.70;13.48;;;;;;;28.84;52.28;91830.81;5032862;28;20186;-79
2023/07/26 05:56:32;;;;;;;19.83;12.35;;;;;;;29.73;50.10;91823.44;5035138;28;20228;-80
2023/07/26 05:58:57;;;;;;;16.98;11.73;;;;;;;30.57;47.05;91830.84;5035840;28;20220;-78
2023/07/26 06:01:22;;;;;;;22.15;12.77;;;;;;;30.92;49.36;91827.31;5020434;28;20257;-79
2023/07/26 06:03:48;;;;;;;17.45;12.85;;;;;;;30.83;48.71;91827.91;5031854;28;20193;-78
2023/07/26 06:06:13;;;;;;;21.35;12.73;;;;;;;30.33;47.39;91832.94;5031207;28;20225;-79
2023/07/26 06:08:39;;;;;;;23.15;13.05;;;;;;;31.70;43.94;91810.59;5031650;28;20191;-78
2023/07/26 06:11:04;;;;;;;17.48;13.20;;;;;;;31.18;46.33;91837.81;5054897;28;20285;-78
2023/07/26 06:13:29;;;;;;;22.45;12.32;;;;;;;29.13;45.33;91805.00;5057892;28;20186;-79
2023/07/26 06:15:55;;;;;;;15.85;10.60;;;;;;;30.02;41.93;91804.00;5038956;28;20245;-78
2023/07/26 06:18:21;;;;;;;23.70;11.88;;;;;;;32.95;32.21;91796.38;5031681;28;20197;-79
2023/07/26 06:20:46;;;;;;;30.02;10.90;;;;;;;35.70;26.55;91805.59;5047015;28;20221;-78
2023/07/26 06:23:12;;;;;;;18.73;10.48;;;;;;;36.67;25.23;91835.00;5058667;28;20182;-79
2023/07/26 06:25:37;;;;;;;25.60;10.70;;;;;;;40.03;23.32;91845.53;5048798;28;20225;-78
2023/07/26 06:28:03;;;;;;;19.17;11.10;;;;;;;40.68;23.10;91846.66;5045286;28;20799;-79
2023/07/26 06:30:28;;;;;;;19.58;10.65;;;;;;;41.46;21.15;91842.47;5040326;28;20269;-78
2023/07/26 06:32:53;;;;;;;20.05;10.63;;;;;;;40.12;22.19;91861.78;5052031;28;20218;-80
2023/07/26 06:35:19;;;;;;;18.25;10.45;;;;;;;42.40;20.82;91871.03;5044415;28;20245;-79
2023/07/26 06:37:44;;;;;;;17.30;10.13;;;;;;;41.93;22.80;91880.13;5032450;28;20195;-81
2023/07/26 06:40:10;;;;;;;20.65;10.35;;;;;;;42.04;23.23;91891.88;5031508;28;20246;-79
2023/07/26 06:42:36;;;;;;;19.15;10.43;;;;;;;43.94;21.27;91890.16;5032269;28;20178;-79
2023/07/26 06:45:01;;;;;;;15.38;10.35;;;;;;;41.46;22.74;91867.88;5036127;28;20246;-77
2023/07/26 06:47:27;;;;;;;17.52;10.68;;;;;;;35.58;31.76;91851.50;5052058;28;20202;-81
2023/07/26 06:49:52;;;;;;;14.68;9.70;;;;;;;35.03;30.44;91833.63;5055233;28;20228;-78
2023/07/26 06:52:17;;;;;;;17.35;10.80;;;;;;;33.89;31.30;91851.91;5050971;28;20213;-80
2023/07/26 06:54:43;;;;;;;21.35;11.02;;;;;;;32.32;35.79;91849.69;5048936;28;20220;-79
2023/07/26 06:57:09;;;;;;;21.60;11.70;;;;;;;31.96;34.91;91841.88;5032149;28;20183;-80
2023/07/26 06:59:35;;;;;;;17.75;11.07;;;;;;;32.04;33.42;91827.00;5031131;28;20187;-78
2023/07/26 07:02:01;;;;;;;15.73;10.70;;;;;;;32.03;34.38;91841.69;5031699;28;20186;-79
2023/07/26 07:04:26;;;;;;;27.27;10.32;;;;;;;30.96;32.10;91776.72;5031483;28;20226;-80
2023/07/26 07:06:51;;;;;;;23.73;10.88;;;;;;;30.97;35.83;91813.31;5031045;28;20244;-79
2023/07/26 07:09:17;;;;;;;30.17;11.88;;;;;;;31.43;37.17;91820.25;5031185;28;20191;-80
2023/07/26 07:11:42;;;;;;;15.40;10.57;;;;;;;31.36;37.72;91788.81;5049458;28;20336;-79
2023/07/26 07:14:08;;;;;;;24.45;11.23;;;;;;;31.86;37.92;91818.63;5051336;28;20210;-79
2023/07/26 07:16:33;;;;;;;20.92;11.10;;;;;;;31.46;34.07;91812.03;5050829;28;20289;-78
2023/07/26 07:19:00;;;;;;;21.67;10.73;;;;;;;31.89;33.19;91836.69;5051141;28;20220;-78
2023/07/26 07:21:25;;;;;;;23.92;11.75;;;;;;;31.39;30.17;91814.94;5050437;28;20241;-80
2023/07/26 07:23:51;;;;;;;19.98;11.10;;;;;;;31.27;29.09;91805.56;5049867;28;20201;-79
2023/07/26 07:26:17;;;;;;;25.88;11.00;;;;;;;31.67;30.44;91830.34;5050313;28;20276;-80
2023/07/26 07:28:43;;;;;;;16.50;10.23;;;;;;;31.97;30.09;91834.56;5051345;28;20250;-78
2023/07/26 07:31:08;;;;;;;21.15;10.63;;;;;;;31.73;30.71;91817.06;5049338;28;20237;-79
2023/07/26 07:33:33;;;;;;;22.05;11.40;;;;;;;31.88;30.83;91813.56;5050841;28;20866;-79
2023/07/26 07:35:59;;;;;;;19.13;10.73;;;;;;;32.27;30.57;91815.09;5050500;28;20222;-78
2023/07/26 07:38:25;;;;;;;22.40;10.38;;;;;;;32.48;31.51;91807.16;5050688;28;20170;-80
2023/07/26 07:40:50;;;;;;;20.38;9.82;;;;;;;32.25;29.52;91820.94;5050374;28;20229;-78
2023/07/26 07:43:15;;;;;;;19.08;9.45;;;;;;;32.66;27.82;91849.84;5049701;28;20194;-79
2023/07/26 07:45:41;;;;;;;13.80;10.52;;;;;;;32.57;28.95;91811.88;5049302;28;20260;-78
2023/07/26 07:48:07;;;;;;;17.10;10.05;;;;;;;32.15;28.38;91813.16;5050330;28;20204;-79
2023/07/26 07:50:32;;;;;;;18.55;10.18;;;;;;;32.87;28.22;91811.31;5050063;28;20222;-79
2023/07/26 07:52:58;;;;;;;17.88;8.70;;;;;;;33.11;27.31;91806.28;5050107;28;20217;-77
2023/07/26 07:55:23;;;;;;;25.75;10.98;;;;;;;32.84;27.29;91811.41;5049952;28;20227;-79
2023/07/26 07:57:49;;;;;;;24.88;10.20;;;;;;;32.80;28.25;91794.56;5050523;28;20194;-79
2023/07/26 08:00:15;;;;;;;21.23;10.52;;;;;;;32.86;27.38;91804.38;5049871;28;20264;-79
2023/07/26 08:02:40;;;;;;;15.20;9.40;;;;;;;32.86;28.48;91807.06;5050251;28;20214;-78
2023/07/26 08:05:06;;;;;;;17.63;10.65;;;;;;;32.87;29.64;91778.09;5049457;28;20234;-79
2023/07/26 08:07:31;;;;;;;18.45;9.10;;;;;;;33.06;28.87;91796.03;5050090;28;20182;-79
2023/07/26 08:09:56;;;;;;;19.58;9.60;;;;;;;33.27;28.34;91800.69;5050006;28;20237;-79
2023/07/26 08:12:22;;;;;;;18.23;10.25;;;;;;;32.97;28.09;91801.38;5050060;28;20210;-79
2023/07/26 08:14:49;;;;;;;20.38;10.23;;;;;;;33.06;29.04;91814.97;5049737;28;20251;-79
2023/07/26 08:17:15;;;;;;;19.27;9.80;;;;;;;33.11;28.38;91827.94;5061947;28;20197;-78
2023/07/26 08:19:40;;;;;;;21.92;9.55;;;;;;;33.22;27.58;91825.59;5049676;28;20194;-80
2023/07/26 08:22:05;;;;;;;25.65;10.30;;;;;;;33.04;28.23;91807.28;5049736;28;20185;-80
2023/07/26 08:24:31;;;;;;;19.30;9.32;;;;;;;33.29;28.04;91828.09;5049720;28;20229;-79
2023/07/26 08:26:56;;;;;;;20.50;9.73;;;;;;;33.14;28.83;91813.53;5049974;28;20186;-79
2023/07/26 08:29:21;;;;;;;15.40;9.82;;;;;;;33.58;26.97;91823.22;5050661;28;20178;-79
2023/07/26 08:31:47;;;;;;;23.88;9.45;;;;;;;33.48;25.99;91819.69;5030136;28;20253;-79
2023/07/26 08:34:12;;;;;;;20.15;9.82;;;;;;;33.45;27.09;91817.13;5030400;28;20190;-79
2023/07/26 08:36:37;;;;;;;22.98;10.15;;;;;;;33.45;27.47;91817.13;5029658;28;20230;-79
2023/07/26 08:39:03;;;;;;;18.42;10.02;;;;;;;33.53;26.28;91815.66;5030286;28;20183;-79
2023/07/26 08:41:30;;;;;;;24.10;9.60;;;;;;;33.55;26.83;91805.16;5029486;28;20215;-79
2023/07/26 08:43:59;;;;;;;23.95;9.07;;;;;;;33.30;28.10;91824.94;5030295;28;20194;-79
2023/07/26 08:46:27;;;;;;;22.52;9.65;;;;;;;33.48;26.34;91805.41;5045224;28;20253;-80
2023/07/26 08:48:52;;;;;;;15.82;8.80;;;;;;;33.24;26.01;91826.69;5049775;28;20293;-79
2023/07/26 08:51:20;;;;;;;19.40;9.98;;;;;;;32.51;26.58;91846.06;5048975;28;20218;-81
2023/07/26 08:53:48;;;;;;;21.25;9.65;;;;;;;33.02;27.08;91830.53;5049660;28;20209;-80
2023/07/26 08:56:15;;;;;;;25.00;9.15;;;;;;;33.10;27.36;91815.59;5048017;28;20233;-79
2023/07/26 08:58:41;;;;;;;16.25;9.27;;;;;;;33.39;27.64;91805.34;5049993;28;20240;-80
2023/07/26 09:01:06;;;;;;;19.52;10.50;;;;;;;33.61;27.65;91822.34;5048994;28;20217;-78
2023/07/26 09:03:32;;;;;;;24.70;9.32;;;;;;;33.73;28.21;91800.63;5049737;28;20182;-80
2023/07/26 09:06:05;;;;;;;17.45;9.35;;;;;;;33.46;26.01;91803.16;5048801;28;20241;-80
2023/07/26 09:08:31;;;;;;;18.10;9.15;;;;;;;33.11;25.51;91814.41;5049527;28;20189;-79
2023/07/26 09:10:56;;;;;;;20.38;9.23;;;;;;;33.17;25.66;91826.94;5049136;28;20218;-80
2023/07/26 09:13:22;;;;;;;19.10;8.82;;;;;;;33.06;26.04;91806.84;5049430;28;20955;-78
2023/07/26 09:15:50;;;;;;;26.30;9.35;;;;;;;32.97;25.41;91825.72;5049265;28;20220;-80
2023/07/26 09:18:15;;;;;;;16.38;9.48;;;;;;;33.16;26.26;91827.38;5052512;28;20190;-79
2023/07/26 09:20:41;;;;;;;16.42;9.18;;;;;;;33.53;24.93;91823.78;5052757;28;20241;-76
2023/07/26 09:23:08;;;;;;;21.90;9.65;;;;;;;33.51;26.97;91842.44;5044614;28;20186;-77
2023/07/26 09:25:35;;;;;;;16.73;8.93;;;;;;;33.53;27.21;91832.66;5052806;28;20249;-75
2023/07/26 09:28:05;;;;;;;26.27;9.55;;;;;;;33.64;27.46;91829.59;5053732;28;20240;-81
2023/07/26 09:30:38;;;;;;;18.98;8.48;;;;;;;33.72;25.38;91825.44;5051858;28;20202;-77
2023/07/26 09:33:06;;;;;;;15.60;8.18;;;;;;;33.27;24.03;91855.59;5051978;28;20213;-77
2023/07/26 09:35:32;;;;;;;14.77;8.35;;;;;;;33.41;25.81;91843.56;5051548;28;20269;-77
2023/07/26 09:38:08;;;;;;;12.45;8.32;;;;;;;33.58;25.27;91839.47;5053040;28;20198;-76
2023/07/26 09:40:34;;;;;;;19.00;8.73;;;;;;;33.98;26.85;91860.09;5052440;28;20255;-76
2023/07/26 09:42:59;;;;;;;19.52;9.20;;;;;;;33.71;24.05;91846.34;5053063;28;20190;-76
2023/07/26 09:45:25;;;;;;;18.38;8.57;;;;;;;34.17;24.28;91859.00;5052616;28;20222;-77
2023/07/26 09:47:51;;;;;;;15.95;9.27;;;;;;;34.27;25.28;91848.97;5052692;28;20209;-76
2023/07/26 09:50:31;;;;;;;21.35;10.48;;;;;;;33.40;25.41;91848.22;5052434;28;20230;-78
2023/07/26 09:52:56;;;;;;;17.83;8.75;;;;;;;33.28;26.42;91845.53;5052589;28;20217;-79
2023/07/26 09:55:23;;;;;;;16.63;9.65;;;;;;;33.67;24.40;91848.41;5052367;28;20233;-80
2023/07/26 09:57:51;;;;;;;19.83;9.60;;;;;;;33.23;25.67;91835.25;5052673;28;20194;-79
2023/07/26 10:00:18;;;;;;;22.65;10.15;;;;;;;33.81;25.64;91836.31;5051728;28;20230;-77
2023/07/26 10:02:45;;;;;;;15.10;8.93;;;;;;;34.00;25.71;91851.53;5051870;28;20174;-77
2023/07/26 10:05:15;;;;;;;16.98;10.18;;;;;;;34.18;25.80;91840.81;5052004;28;20237;-77
2023/07/26 10:07:40;;;;;;;17.60;9.13;;;;;;;34.04;25.78;91835.91;5052490;28;20190;-79
2023/07/26 10:10:07;;;;;;;31.60;10.23;;;;;;;34.02;27.42;91843.72;5059592;28;20233;-77
2023/07/26 10:12:33;;;;;;;15.13;9.07;;;;;;;33.95;26.49;91841.25;5053412;28;20214;-78
2023/07/26 10:15:00;;;;;;;18.25;10.15;;;;;;;33.69;27.86;91824.38;5052210;28;20226;-78
2023/07/26 10:17:29;;;;;;;21.05;9.65;;;;;;;33.77;27.28;91822.94;5052380;28;20182;-79
2023/07/26 10:19:55;;;;;;;14.65;8.88;;;;;;;33.74;26.57;91828.47;5052255;28;20222;-79
2023/07/26 10:22:22;;;;;;;18.02;9.38;;;;;;;33.80;25.49;91815.84;5052239;28;20205;-78
2023/07/26 10:24:47;;;;;;;18.52;9.88;;;;;;;33.79;26.25;91815.09;5051826;28;20198;-74
2023/07/26 10:27:13;;;;;;;14.27;10.18;;;;;;;33.66;25.82;91800.13;5051945;28;20182;-74
2023/07/26 10:29:39;;;;;;;21.10;9.27;;;;;;;33.50;26.51;91814.59;5052190;28;21014;-74
2023/07/26 10:32:07;;;;;;;16.40;9.68;;;;;;;33.17;26.93;91799.88;5051916;28;20232;-74
2023/07/26 10:34:32;;;;;;;13.38;8.70;;;;;;;34.11;26.73;91827.50;5051761;28;20182;-74
2023/07/26 10:36:58;;;;;;;19.88;9.15;;;;;;;34.40;26.55;91806.28;5051497;28;20201;-74
2023/07/26 10:39:34;;;;;;;19.83;9.75;;;;;;;34.36;25.97;91821.13;5051885;28;20840;-74
2023/07/26 10:42:01;;;;;;;11.35;8.18;;;;;;;34.13;26.98;91825.84;5051736;28;20281;-74
2023/07/26 10:44:27;;;;;;;13.82;9.68;;;;;;;34.34;25.99;91843.28;5051557;28;20432;-74
2023/07/26 10:47:01;;;;;;;19.35;9.27;;;;;;;33.74;25.10;91802.16;5051574;28;20218;-74
2023/07/26 10:49:33;;;;;;;20.02;9.85;;;;;;;34.28;24.89;91801.69;5056539;28;20208;-73
2023/07/26 10:52:03;;;;;;;14.55;9.07;;;;;;;34.45;24.69;91799.53;5051528;28;20229;-74
2023/07/26 10:54:51;;;;;;;20.80;8.95;;;;;;;34.80;25.70;91801.59;5051283;28;20190;-74
2023/07/26 10:57:18;;;;;;;15.77;9.25;;;;;;;34.73;24.53;91798.38;5059139;28;20190;-74
2023/07/26 11:00:04;;;;;;;20.25;8.73;;;;;;;34.95;25.07;91805.25;5051425;28;20242;-74
2023/07/26 11:02:44;;;;;;;20.77;8.98;;;;;;;35.14;24.31;91806.81;5051610;28;20205;-74
2023/07/26 11:05:21;;;;;;;19.55;8.50;;;;;;;34.76;24.02;91798.25;5083461;28;20253;-74
2023/07/26 11:08:00;;;;;;;20.02;9.82;;;;;;;34.51;26.01;91793.06;5051169;28;20178;-74
2023/07/26 11:10:33;;;;;;;21.55;8.32;;;;;;;34.66;25.17;91799.44;5051035;28;20285;-74
2023/07/26 11:13:12;;;;;;;15.45;8.98;;;;;;;34.66;25.68;91802.16;5051330;28;20225;-73
2023/07/26 11:15:45;;;;;;;13.20;9.05;;;;;;;34.27;24.81;91802.13;5050802;28;20233;-74